Time,TemperatureF,DewpointF,PressureIn,WindDirection,WindDirectionDegrees,WindSpeedMPH,WindSpeedGustMPH,Humidity,HourlyPrecipIn,Conditions,Clouds,dailyrainin,SoftwareType,DateUTC
2014-08-30 00:04:00,70.0,64.8,29.85,South,180,0.0,0.0,86,0.00,,,0.00,WUHU21636XXSP,2014-08-30 04:04:00,
2014-08-30 00:09:00,70.5,66.0,29.85,South,180,0.0,0.0,86,0.00,,,0.00,WUHU21636XXSP,2014-08-30 04:09:00,
2014-08-30 00:14:00,70.5,66.0,29.86,South,180,0.0,0.0,86,0.00,,,0.00,WUHU21636XXSP,2014-08-30 04:14:00,
2014-08-30 00:19:00,70.9,66.4,29.86,South,180,0.0,0.0,86,0.00,,,0.00,WUHU21636XXSP,2014-08-30 04:19:00,
2014-08-30 00:24:00,71.1,66.2,29.87,South,180,0.0,0.0,85,0.00,,,0.00,WUHU21636XXSP,2014-08-30 04:24:00,
2014-08-30 00:29:00,70.9,66.0,29.86,South,180,0.0,0.0,85,0.00,,,0.00,WUHU21636XXSP,2014-08-30 04:29:00,
2014-08-30 00:34:00,70.9,66.0,29.86,South,180,0.0,0.0,85,0.00,,,0.00,WUHU21636XXSP,2014-08-30 04:34:00,
2014-08-30 00:39:00,70.9,66.0,29.87,South,180,0.0,0.0,85,0.00,,,0.00,WUHU21636XXSP,2014-08-30 04:39:00,
2014-08-30 00:44:00,70.7,65.8,29.87,South,180,0.0,0.0,85,0.00,,,0.00,WUHU21636XXSP,2014-08-30 04:44:00,
2014-08-30 00:45:00,70.9,66.0,29.87,South,180,0.0,0.0,85,0.00,,,0.00,WUHU21636XXSP,2014-08-30 04:45:00,
2014-08-30 00:46:00,70.9,66.0,29.87,South,180,0.0,0.0,85,0.00,,,0.00,WUHU21636XXSP,2014-08-30 04:46:00,
2014-08-30 00:47:00,70.9,66.0,29.87,South,180,0.0,0.0,85,0.00,,,0.00,WUHU21636XXSP,2014-08-30 04:47:00,
2014-08-30 00:48:00,70.9,66.0,29.87,South,180,0.0,0.0,85,0.00,,,0.00,WUHU21636XXSP,2014-08-30 04:48:00,
2014-08-30 00:49:00,70.7,65.8,29.86,South,180,0.0,0.0,85,0.00,,,0.00,WUHU21636XXSP,2014-08-30 04:49:00,
2014-08-30 00:50:00,70.9,66.0,29.87,South,180,0.0,0.0,85,0.00,,,0.00,WUHU21636XXSP,2014-08-30 04:50:00,
2014-08-30 00:51:00,71.1,66.2,29.87,South,180,0.0,0.0,85,0.00,,,0.00,WUHU21636XXSP,2014-08-30 04:51:00,
2014-08-30 00:54:00,70.5,65.7,29.87,South,180,0.0,0.0,85,0.00,,,0.00,WUHU21636XXSP,2014-08-30 04:54:00,
2014-08-30 00:59:00,70.5,65.7,29.87,South,180,0.0,0.0,85,0.00,,,0.00,WUHU21636XXSP,2014-08-30 04:59:00,
2014-08-30 01:04:00,70.7,65.8,29.87,South,180,0.0,0.0,85,0.00,,,0.00,WUHU21636XXSP,2014-08-30 05:04:00,
2014-08-30 01:09:00,70.7,65.8,29.87,South,180,0.0,0.0,85,0.00,,,0.00,WUHU21636XXSP,2014-08-30 05:09:00,
2014-08-30 01:14:00,70.7,65.8,29.87,South,180,0.0,0.0,85,0.00,,,0.00,WUHU21636XXSP,2014-08-30 05:14:00,
2014-08-30 01:19:00,70.9,66.0,29.87,South,180,0.0,0.0,85,0.00,,,0.00,WUHU21636XXSP,2014-08-30 05:19:00,
2014-08-30 01:24:00,71.1,66.2,29.87,South,180,0.0,0.0,85,0.00,,,0.00,WUHU21636XXSP,2014-08-30 05:24:00,
2014-08-30 01:29:00,71.2,66.4,29.87,South,180,0.0,0.0,84,0.00,,,0.00,WUHU21636XXSP,2014-08-30 05:29:00,
2014-08-30 01:34:00,71.2,66.4,29.87,South,180,0.0,0.0,84,0.00,,,0.00,WUHU21636XXSP,2014-08-30 05:34:00,
2014-08-30 01:39:00,71.2,66.0,29.87,South,180,0.0,0.0,84,0.00,,,0.00,WUHU21636XXSP,2014-08-30 05:39:00,
2014-08-30 01:41:00,71.2,65.7,29.87,South,180,0.0,0.0,83,0.00,,,0.00,WUHU21636XXSP,2014-08-30 05:41:00,
2014-08-30 01:42:00,71.2,65.7,29.87,South,180,0.0,0.0,83,0.00,,,0.00,WUHU21636XXSP,2014-08-30 05:42:00,
2014-08-30 01:43:00,71.1,65.5,29.87,South,180,0.0,0.0,83,0.00,,,0.00,WUHU21636XXSP,2014-08-30 05:43:00,
2014-08-30 01:44:00,71.2,66.0,29.87,South,180,0.0,0.0,84,0.00,,,0.00,WUHU21636XXSP,2014-08-30 05:44:00,
2014-08-30 01:45:00,70.9,65.3,29.87,South,180,0.0,0.0,83,0.00,,,0.00,WUHU21636XXSP,2014-08-30 05:45:00,
2014-08-30 01:46:00,70.9,65.3,29.87,South,180,0.0,0.0,83,0.00,,,0.00,WUHU21636XXSP,2014-08-30 05:46:00,
2014-08-30 01:47:00,70.9,65.3,29.87,South,180,0.0,0.0,83,0.00,,,0.00,WUHU21636XXSP,2014-08-30 05:47:00,
2014-08-30 01:48:00,70.9,65.3,29.87,South,180,0.0,0.0,83,0.00,,,0.00,WUHU21636XXSP,2014-08-30 05:48:00,
2014-08-30 01:49:00,71.2,66.0,29.87,South,180,0.0,0.0,84,0.00,,,0.00,WUHU21636XXSP,2014-08-30 05:49:00,
2014-08-30 01:50:00,70.9,65.3,29.87,South,180,0.0,0.0,83,0.00,,,0.00,WUHU21636XXSP,2014-08-30 05:50:00,
2014-08-30 01:52:00,70.9,65.3,29.87,South,180,0.0,0.0,83,0.00,,,0.00,WUHU21636XXSP,2014-08-30 05:52:00,
2014-08-30 01:53:00,70.9,65.3,29.87,South,180,0.0,0.0,83,0.00,,,0.00,WUHU21636XXSP,2014-08-30 05:53:00,
2014-08-30 01:54:00,71.1,65.5,29.87,South,180,0.0,0.0,83,0.00,,,0.00,WUHU21636XXSP,2014-08-30 05:54:00,
2014-08-30 01:59:00,71.1,65.5,29.87,South,180,0.0,0.0,83,0.00,,,0.00,WUHU21636XXSP,2014-08-30 05:59:00,
2014-08-30 02:04:00,71.1,65.5,29.87,South,180,0.0,0.0,83,0.00,,,0.00,WUHU21636XXSP,2014-08-30 06:04:00,
2014-08-30 02:09:00,71.2,65.7,29.87,South,180,0.0,0.0,83,0.00,,,0.00,WUHU21636XXSP,2014-08-30 06:09:00,
2014-08-30 02:14:00,71.1,65.5,29.87,South,180,0.0,0.0,83,0.00,,,0.00,WUHU21636XXSP,2014-08-30 06:14:00,
2014-08-30 02:19:00,70.9,65.3,29.87,South,180,0.0,0.0,83,0.00,,,0.00,WUHU21636XXSP,2014-08-30 06:19:00,
2014-08-30 02:24:00,70.9,65.3,29.87,South,180,0.0,0.0,83,0.00,,,0.00,WUHU21636XXSP,2014-08-30 06:24:00,
2014-08-30 02:29:00,70.7,65.1,29.87,South,180,0.0,0.0,83,0.00,,,0.00,WUHU21636XXSP,2014-08-30 06:29:00,
2014-08-30 02:34:00,70.5,64.9,29.87,South,180,0.0,0.0,83,0.00,,,0.00,WUHU21636XXSP,2014-08-30 06:34:00,
2014-08-30 02:39:00,70.3,65.1,29.87,South,180,0.0,0.0,84,0.00,,,0.00,WUHU21636XXSP,2014-08-30 06:39:00,
2014-08-30 02:44:00,70.2,64.9,29.87,South,180,0.0,0.0,84,0.00,,,0.00,WUHU21636XXSP,2014-08-30 06:44:00,
2014-08-30 02:49:00,70.2,64.9,29.87,South,180,0.0,0.0,84,0.00,,,0.00,WUHU21636XXSP,2014-08-30 06:49:00,
2014-08-30 02:54:00,70.0,64.8,29.87,South,180,0.0,0.0,84,0.00,,,0.00,WUHU21636XXSP,2014-08-30 06:54:00,
2014-08-30 02:59:00,70.0,64.8,29.87,South,180,0.0,0.0,85,0.00,,,0.00,WUHU21636XXSP,2014-08-30 06:59:00,
2014-08-30 03:04:00,70.0,64.8,29.87,South,180,0.0,0.0,84,0.00,,,0.00,WUHU21636XXSP,2014-08-30 07:04:00,
2014-08-30 03:09:00,69.8,64.6,29.87,South,180,0.0,0.0,84,0.00,,,0.00,WUHU21636XXSP,2014-08-30 07:09:00,
2014-08-30 03:14:00,69.6,64.8,29.87,South,180,0.0,0.0,85,0.00,,,0.00,WUHU21636XXSP,2014-08-30 07:14:00,
2014-08-30 03:19:00,69.6,64.8,29.87,South,180,0.0,0.0,85,0.00,,,0.00,WUHU21636XXSP,2014-08-30 07:19:00,
2014-08-30 03:24:00,69.6,64.8,29.86,South,180,0.0,0.0,85,0.00,,,0.00,WUHU21636XXSP,2014-08-30 07:24:00,
2014-08-30 03:29:00,69.4,64.6,29.87,South,180,0.0,0.0,86,0.00,,,0.00,WUHU21636XXSP,2014-08-30 07:29:00,
2014-08-30 03:34:00,69.4,64.6,29.86,South,180,0.0,0.0,85,0.00,,,0.00,WUHU21636XXSP,2014-08-30 07:34:00,
2014-08-30 03:39:00,69.3,64.8,29.86,South,180,0.0,0.0,86,0.00,,,0.00,WUHU21636XXSP,2014-08-30 07:39:00,
2014-08-30 03:44:00,69.1,64.6,29.86,South,180,0.0,0.0,86,0.00,,,0.00,WUHU21636XXSP,2014-08-30 07:44:00,
2014-08-30 03:49:00,69.1,64.6,29.86,South,180,0.0,0.0,86,0.00,,,0.00,WUHU21636XXSP,2014-08-30 07:49:00,
2014-08-30 03:54:00,68.9,64.4,29.86,South,180,0.0,0.0,86,0.00,,,0.00,WUHU21636XXSP,2014-08-30 07:54:00,
2014-08-30 03:59:00,68.9,64.4,29.86,South,180,0.0,0.0,87,0.00,,,0.00,WUHU21636XXSP,2014-08-30 07:59:00,
2014-08-30 04:04:00,68.7,64.6,29.86,South,180,0.0,0.0,87,0.00,,,0.00,WUHU21636XXSP,2014-08-30 08:04:00,
2014-08-30 04:09:00,68.7,64.6,29.86,South,180,0.0,0.0,87,0.00,,,0.00,WUHU21636XXSP,2014-08-30 08:09:00,
2014-08-30 04:14:00,68.5,64.4,29.86,South,180,0.0,0.0,87,0.00,,,0.00,WUHU21636XXSP,2014-08-30 08:14:00,
2014-08-30 04:19:00,68.4,64.2,29.86,South,180,0.0,0.0,87,0.00,,,0.00,WUHU21636XXSP,2014-08-30 08:19:00,
2014-08-30 04:24:00,68.2,64.0,29.86,South,180,0.0,0.0,87,0.00,,,0.00,WUHU21636XXSP,2014-08-30 08:24:00,
2014-08-30 04:29:00,68.4,64.2,29.86,South,180,0.0,0.0,87,0.00,,,0.00,WUHU21636XXSP,2014-08-30 08:29:00,
2014-08-30 04:34:00,68.4,64.2,29.86,South,180,0.0,0.0,88,0.00,,,0.00,WUHU21636XXSP,2014-08-30 08:34:00,
2014-08-30 04:39:00,68.5,64.8,29.86,South,180,0.0,0.0,88,0.00,,,0.00,WUHU21636XXSP,2014-08-30 08:39:00,
2014-08-30 04:41:00,68.7,64.9,29.86,South,180,0.0,0.0,88,0.00,,,0.00,WUHU21636XXSP,2014-08-30 08:41:00,
2014-08-30 04:42:00,68.7,64.9,29.86,South,180,0.0,0.0,88,0.00,,,0.00,WUHU21636XXSP,2014-08-30 08:42:00,
2014-08-30 04:43:00,68.7,64.9,29.86,South,180,0.0,0.0,88,0.00,,,0.00,WUHU21636XXSP,2014-08-30 08:43:00,
2014-08-30 04:44:00,68.5,64.8,29.86,South,180,0.0,0.0,88,0.00,,,0.00,WUHU21636XXSP,2014-08-30 08:44:00,
2014-08-30 04:45:00,68.9,65.5,29.86,South,180,0.0,0.0,89,0.00,,,0.00,WUHU21636XXSP,2014-08-30 08:45:00,
2014-08-30 04:46:00,68.9,65.5,29.86,South,180,0.0,0.0,88,0.00,,,0.00,WUHU21636XXSP,2014-08-30 08:46:00,
2014-08-30 04:47:00,68.9,65.5,29.86,South,180,0.0,0.0,88,0.00,,,0.00,WUHU21636XXSP,2014-08-30 08:47:00,
2014-08-30 04:49:00,68.5,64.8,29.86,South,180,0.0,0.0,88,0.00,,,0.00,WUHU21636XXSP,2014-08-30 08:49:00,
2014-08-30 04:54:00,68.5,64.8,29.86,South,180,0.0,0.0,88,0.00,,,0.00,WUHU21636XXSP,2014-08-30 08:54:00,
2014-08-30 04:59:00,68.7,64.9,29.86,South,180,0.0,0.0,88,0.00,,,0.00,WUHU21636XXSP,2014-08-30 08:59:00,
2014-08-30 05:04:00,68.7,64.9,29.86,South,180,0.0,0.0,88,0.00,,,0.00,WUHU21636XXSP,2014-08-30 09:04:00,
2014-08-30 05:09:00,68.7,64.9,29.86,South,180,0.0,0.0,88,0.00,,,0.00,WUHU21636XXSP,2014-08-30 09:09:00,
2014-08-30 05:14:00,68.7,64.9,29.86,South,180,0.0,0.0,88,0.00,,,0.00,WUHU21636XXSP,2014-08-30 09:14:00,
2014-08-30 05:19:00,68.9,65.5,29.86,South,180,0.0,0.0,88,0.00,,,0.00,WUHU21636XXSP,2014-08-30 09:19:00,
2014-08-30 05:24:00,69.1,65.7,29.86,South,180,0.0,0.0,89,0.00,,,0.00,WUHU21636XXSP,2014-08-30 09:24:00,
2014-08-30 05:29:00,69.1,65.7,29.86,South,180,0.0,0.0,88,0.00,,,0.00,WUHU21636XXSP,2014-08-30 09:29:00,
2014-08-30 05:34:00,69.1,65.7,29.86,South,180,0.0,0.0,88,0.00,,,0.00,WUHU21636XXSP,2014-08-30 09:34:00,
2014-08-30 05:39:00,69.1,65.7,29.86,South,180,0.0,0.0,88,0.00,,,0.00,WUHU21636XXSP,2014-08-30 09:39:00,
2014-08-30 05:41:00,69.4,65.7,29.87,South,180,0.0,0.0,90,0.19,,,0.19,WUHU21636XXSP,2014-08-30 09:41:00,
2014-08-30 05:42:00,69.4,65.7,29.87,South,180,0.0,0.0,90,0.19,,,0.19,WUHU21636XXSP,2014-08-30 09:42:00,
2014-08-30 05:43:00,69.4,65.7,29.87,South,180,0.0,0.0,90,0.19,,,0.19,WUHU21636XXSP,2014-08-30 09:43:00,
2014-08-30 05:44:00,69.1,65.7,29.86,South,180,0.0,0.0,88,0.00,,,0.00,WUHU21636XXSP,2014-08-30 09:44:00,
2014-08-30 05:45:00,69.4,65.7,29.87,South,180,0.0,0.0,90,0.19,,,0.19,WUHU21636XXSP,2014-08-30 09:45:00,
2014-08-30 05:46:00,69.4,65.7,29.87,South,180,0.0,0.0,90,0.19,,,0.19,WUHU21636XXSP,2014-08-30 09:46:00,
2014-08-30 05:47:00,69.4,65.7,29.87,South,180,0.0,0.0,90,0.19,,,0.19,WUHU21636XXSP,2014-08-30 09:47:00,
2014-08-30 05:49:00,69.1,65.7,29.87,South,180,0.0,0.0,88,0.00,,,0.00,WUHU21636XXSP,2014-08-30 09:49:00,
2014-08-30 05:54:00,69.4,65.7,29.87,South,180,0.0,0.0,89,0.02,,,0.02,WUHU21636XXSP,2014-08-30 09:54:00,
2014-08-30 05:59:00,69.4,65.7,29.86,South,180,0.0,0.0,89,0.15,,,0.15,WUHU21636XXSP,2014-08-30 09:59:00,
2014-08-30 06:04:00,69.4,65.7,29.86,South,180,0.0,0.0,89,0.15,,,0.15,WUHU21636XXSP,2014-08-30 10:04:00,
2014-08-30 06:09:00,69.4,65.7,29.86,South,180,0.0,0.0,89,0.19,,,0.19,WUHU21636XXSP,2014-08-30 10:09:00,
2014-08-30 06:14:00,69.4,65.7,29.87,South,180,0.0,0.0,90,0.19,,,0.19,WUHU21636XXSP,2014-08-30 10:14:00,
2014-08-30 06:19:00,69.4,65.7,29.87,South,180,0.0,0.0,90,0.19,,,0.19,WUHU21636XXSP,2014-08-30 10:19:00,
2014-08-30 06:24:00,69.4,65.7,29.87,South,180,0.0,0.0,90,0.19,,,0.19,WUHU21636XXSP,2014-08-30 10:24:00,
2014-08-30 06:29:00,69.4,65.7,29.88,South,180,0.0,0.0,90,0.19,,,0.19,WUHU21636XXSP,2014-08-30 10:29:00,
2014-08-30 06:34:00,69.4,65.7,29.88,South,180,0.0,0.0,90,0.19,,,0.19,WUHU21636XXSP,2014-08-30 10:34:00,
2014-08-30 06:38:00,70.2,67.1,29.88,South,180,3.0,3.0,90,0.02,,,0.21,WUHU21636XXSP,2014-08-30 10:38:00,
2014-08-30 06:39:00,69.6,66.6,29.88,South,180,0.0,0.0,90,0.19,,,0.19,WUHU21636XXSP,2014-08-30 10:39:00,
2014-08-30 06:40:00,70.2,67.1,29.88,South,180,1.0,3.0,90,0.02,,,0.21,WUHU21636XXSP,2014-08-30 10:40:00,
2014-08-30 06:41:00,70.2,67.1,29.88,South,180,0.0,3.0,90,0.02,,,0.21,WUHU21636XXSP,2014-08-30 10:41:00,
2014-08-30 06:42:00,70.2,67.1,29.88,South,180,0.0,3.0,90,0.02,,,0.21,WUHU21636XXSP,2014-08-30 10:42:00,
2014-08-30 06:43:00,70.2,67.1,29.88,South,180,0.0,3.0,90,0.02,,,0.21,WUHU21636XXSP,2014-08-30 10:43:00,
2014-08-30 06:44:00,69.6,66.6,29.88,South,180,0.0,0.0,90,0.19,,,0.19,WUHU21636XXSP,2014-08-30 10:44:00,
2014-08-30 06:45:00,70.2,67.1,29.88,South,180,4.0,4.0,90,0.02,,,0.21,WUHU21636XXSP,2014-08-30 10:45:00,
2014-08-30 06:49:00,70.0,66.9,29.87,South,180,2.0,10.0,90,0.19,,,0.19,WUHU21636XXSP,2014-08-30 10:49:00,
2014-08-30 06:54:00,70.0,66.9,29.88,South,180,0.0,10.0,90,0.17,,,0.19,WUHU21636XXSP,2014-08-30 10:54:00,
2014-08-30 06:59:00,70.0,66.9,29.88,South,180,1.0,7.0,90,0.06,,,0.21,WUHU21636XXSP,2014-08-30 10:59:00,
2014-08-30 07:04:00,70.2,67.1,29.88,South,180,0.0,2.0,90,0.06,,,0.21,WUHU21636XXSP,2014-08-30 11:04:00,
2014-08-30 07:09:00,70.2,67.1,29.88,South,180,3.0,3.0,90,0.02,,,0.21,WUHU21636XXSP,2014-08-30 11:09:00,
2014-08-30 07:14:00,70.2,67.1,29.88,South,180,0.0,3.0,90,0.02,,,0.21,WUHU21636XXSP,2014-08-30 11:14:00,
2014-08-30 07:19:00,70.3,67.3,29.88,West,270,0.0,4.0,90,0.02,,,0.21,WUHU21636XXSP,2014-08-30 11:19:00,
2014-08-30 07:24:00,70.3,67.3,29.88,West,270,0.0,4.0,90,0.02,,,0.21,WUHU21636XXSP,2014-08-30 11:24:00,
2014-08-30 07:29:00,70.3,67.3,29.88,West,270,0.0,0.0,90,0.02,,,0.21,WUHU21636XXSP,2014-08-30 11:29:00,
2014-08-30 07:31:00,70.0,66.9,29.89,West,270,0.0,0.0,90,0.04,,,0.25,WUHU21636XXSP,2014-08-30 11:31:00,
2014-08-30 07:32:00,70.0,66.9,29.89,West,270,0.0,0.0,90,0.04,,,0.25,WUHU21636XXSP,2014-08-30 11:32:00,
2014-08-30 07:33:00,70.0,66.9,29.89,West,270,0.0,0.0,90,0.04,,,0.25,WUHU21636XXSP,2014-08-30 11:33:00,
2014-08-30 07:34:00,70.2,67.1,29.88,West,270,0.0,0.0,90,0.02,,,0.21,WUHU21636XXSP,2014-08-30 11:34:00,
2014-08-30 07:35:00,70.0,66.9,29.89,West,270,0.0,0.0,90,0.04,,,0.25,WUHU21636XXSP,2014-08-30 11:35:00,
2014-08-30 07:36:00,70.0,66.9,29.89,West,270,0.0,0.0,90,0.04,,,0.25,WUHU21636XXSP,2014-08-30 11:36:00,
2014-08-30 07:37:00,70.0,66.9,29.89,West,270,0.0,0.0,90,0.04,,,0.25,WUHU21636XXSP,2014-08-30 11:37:00,
2014-08-30 07:39:00,70.0,66.9,29.88,West,270,0.0,0.0,90,0.02,,,0.21,WUHU21636XXSP,2014-08-30 11:39:00,
2014-08-30 07:42:00,70.0,66.9,29.89,West,270,0.0,0.0,90,0.04,,,0.25,WUHU21636XXSP,2014-08-30 11:42:00,
2014-08-30 07:44:00,70.0,66.9,29.88,West,270,0.0,0.0,90,0.02,,,0.21,WUHU21636XXSP,2014-08-30 11:44:00,
2014-08-30 07:45:00,70.0,66.9,29.89,West,270,0.0,0.0,90,0.04,,,0.25,WUHU21636XXSP,2014-08-30 11:45:00,
2014-08-30 07:46:00,69.8,66.7,29.89,West,270,0.0,0.0,90,0.04,,,0.25,WUHU21636XXSP,2014-08-30 11:46:00,
2014-08-30 07:47:00,69.8,66.7,29.89,West,270,0.0,0.0,90,0.04,,,0.25,WUHU21636XXSP,2014-08-30 11:47:00,
2014-08-30 07:49:00,70.0,66.9,29.88,West,270,0.0,0.0,90,0.02,,,0.21,WUHU21636XXSP,2014-08-30 11:49:00,
2014-08-30 07:54:00,70.0,66.9,29.89,West,270,0.0,0.0,90,0.06,,,0.25,WUHU21636XXSP,2014-08-30 11:54:00,
2014-08-30 07:59:00,70.0,66.9,29.89,West,270,0.0,0.0,90,0.04,,,0.25,WUHU21636XXSP,2014-08-30 11:59:00,
2014-08-30 08:04:00,70.0,66.9,29.89,West,270,0.0,0.0,90,0.04,,,0.25,WUHU21636XXSP,2014-08-30 12:04:00,
2014-08-30 08:09:00,70.0,66.9,29.89,West,270,0.0,0.0,90,0.04,,,0.25,WUHU21636XXSP,2014-08-30 12:09:00,
2014-08-30 08:14:00,70.0,66.9,29.89,West,270,0.0,0.0,90,0.04,,,0.25,WUHU21636XXSP,2014-08-30 12:14:00,
2014-08-30 08:19:00,70.0,66.9,29.89,West,270,0.0,0.0,90,0.04,,,0.25,WUHU21636XXSP,2014-08-30 12:19:00,
2014-08-30 08:24:00,69.8,66.7,29.89,West,270,0.0,0.0,90,0.04,,,0.25,WUHU21636XXSP,2014-08-30 12:24:00,
2014-08-30 08:29:00,69.8,66.7,29.89,West,270,0.0,0.0,90,0.04,,,0.25,WUHU21636XXSP,2014-08-30 12:29:00,
2014-08-30 08:32:00,70.0,66.9,29.90,West,270,0.0,0.0,90,0.00,,,0.25,WUHU21636XXSP,2014-08-30 12:32:00,
2014-08-30 08:33:00,70.0,66.9,29.90,West,270,0.0,0.0,90,0.00,,,0.25,WUHU21636XXSP,2014-08-30 12:33:00,
2014-08-30 08:34:00,70.0,66.9,29.89,West,270,0.0,0.0,90,0.04,,,0.25,WUHU21636XXSP,2014-08-30 12:34:00,
2014-08-30 08:35:00,70.0,66.9,29.90,West,270,0.0,0.0,90,0.00,,,0.25,WUHU21636XXSP,2014-08-30 12:35:00,
2014-08-30 08:36:00,70.0,66.9,29.89,West,270,0.0,0.0,90,0.00,,,0.25,WUHU21636XXSP,2014-08-30 12:36:00,
2014-08-30 08:37:00,70.0,66.9,29.89,West,270,0.0,0.0,90,0.00,,,0.25,WUHU21636XXSP,2014-08-30 12:37:00,
2014-08-30 08:39:00,70.0,66.9,29.90,West,270,0.0,0.0,90,0.04,,,0.25,WUHU21636XXSP,2014-08-30 12:39:00,
2014-08-30 08:44:00,70.0,66.9,29.90,West,270,0.0,0.0,90,0.04,,,0.25,WUHU21636XXSP,2014-08-30 12:44:00,
2014-08-30 08:49:00,70.2,67.1,29.90,West,270,0.0,0.0,90,0.04,,,0.25,WUHU21636XXSP,2014-08-30 12:49:00,
2014-08-30 08:54:00,70.0,66.9,29.90,West,270,0.0,0.0,90,0.00,,,0.25,WUHU21636XXSP,2014-08-30 12:54:00,
2014-08-30 08:59:00,70.0,66.9,29.90,West,270,0.0,0.0,90,0.00,,,0.25,WUHU21636XXSP,2014-08-30 12:59:00,
2014-08-30 09:04:00,70.0,66.9,29.90,West,270,0.0,0.0,90,0.00,,,0.25,WUHU21636XXSP,2014-08-30 13:04:00,
2014-08-30 09:09:00,70.0,66.9,29.90,West,270,0.0,0.0,90,0.00,,,0.25,WUHU21636XXSP,2014-08-30 13:09:00,
2014-08-30 09:14:00,70.0,66.9,29.90,West,270,0.0,0.0,90,0.00,,,0.25,WUHU21636XXSP,2014-08-30 13:14:00,
2014-08-30 09:19:00,70.0,66.9,29.89,West,270,0.0,0.0,90,0.00,,,0.25,WUHU21636XXSP,2014-08-30 13:19:00,
2014-08-30 09:24:00,70.5,67.5,29.89,West,270,0.0,0.0,90,0.00,,,0.25,WUHU21636XXSP,2014-08-30 13:24:00,
2014-08-30 09:29:00,71.2,67.8,29.89,West,270,0.0,0.0,89,0.00,,,0.25,WUHU21636XXSP,2014-08-30 13:29:00,
2014-08-30 09:34:00,71.4,67.3,29.89,SW,225,0.0,0.0,87,0.00,,,0.25,WUHU21636XXSP,2014-08-30 13:34:00,
2014-08-30 09:39:00,72.3,67.8,29.89,SW,225,0.0,0.0,86,0.00,,,0.25,WUHU21636XXSP,2014-08-30 13:39:00,
2014-08-30 09:44:00,72.1,67.6,29.90,SW,225,0.0,0.0,86,0.00,,,0.25,WUHU21636XXSP,2014-08-30 13:44:00,
2014-08-30 09:49:00,72.3,67.8,29.90,SW,225,0.0,0.0,86,0.00,,,0.25,WUHU21636XXSP,2014-08-30 13:49:00,
2014-08-30 09:55:00,72.1,67.3,29.89,SW,225,0.0,0.0,86,0.00,,,0.25,WUHU21636XXSP,2014-08-30 13:55:00,
2014-08-30 10:00:00,72.1,67.3,29.90,SW,225,0.0,0.0,85,0.00,,,0.25,WUHU21636XXSP,2014-08-30 14:00:00,
2014-08-30 10:05:00,72.7,68.2,29.89,SW,225,0.0,0.0,86,0.00,,,0.25,WUHU21636XXSP,2014-08-30 14:05:00,
2014-08-30 10:10:00,75.4,69.4,29.89,SW,225,0.0,0.0,82,0.00,,,0.25,WUHU21636XXSP,2014-08-30 14:10:00,
2014-08-30 10:15:00,76.3,69.3,29.89,SW,225,0.0,0.0,79,0.00,,,0.25,WUHU21636XXSP,2014-08-30 14:15:00,
2014-08-30 10:20:00,77.2,69.6,29.89,SSW,202,0.0,0.0,78,0.00,,,0.25,WUHU21636XXSP,2014-08-30 14:20:00,
2014-08-30 10:25:00,77.9,70.0,29.89,SSW,202,0.0,0.0,77,0.00,,,0.25,WUHU21636XXSP,2014-08-30 14:25:00,
2014-08-30 10:30:00,78.6,70.3,29.89,SW,225,0.0,0.0,76,0.00,,,0.25,WUHU21636XXSP,2014-08-30 14:30:00,
2014-08-30 10:35:00,79.0,69.4,29.89,SSW,202,0.0,0.0,74,0.00,,,0.25,WUHU21636XXSP,2014-08-30 14:35:00,
2014-08-30 10:40:00,79.9,70.0,29.89,WSW,247,0.0,0.0,72,0.00,,,0.25,WUHU21636XXSP,2014-08-30 14:40:00,
2014-08-30 10:45:00,81.3,70.5,29.90,SSW,202,0.0,0.0,70,0.00,,,0.25,WUHU21636XXSP,2014-08-30 14:45:00,
2014-08-30 10:50:00,82.8,71.1,29.90,SSW,202,0.0,0.0,68,0.00,,,0.25,WUHU21636XXSP,2014-08-30 14:50:00,
2014-08-30 10:55:00,82.2,70.5,29.90,SSE,157,0.0,0.0,68,0.02,,,0.27,WUHU21636XXSP,2014-08-30 14:55:00,
2014-08-30 11:00:00,80.4,69.8,29.90,SW,225,0.0,0.0,70,0.02,,,0.27,WUHU21636XXSP,2014-08-30 15:00:00,
2014-08-30 11:05:00,80.2,70.0,29.90,SW,225,0.0,0.0,71,0.02,,,0.27,WUHU21636XXSP,2014-08-30 15:05:00,
2014-08-30 11:10:00,80.8,70.9,29.90,SW,225,0.0,0.0,72,0.02,,,0.27,WUHU21636XXSP,2014-08-30 15:10:00,
2014-08-30 11:15:00,80.8,69.6,29.90,SSW,202,0.0,0.0,69,0.02,,,0.27,WUHU21636XXSP,2014-08-30 15:15:00,
2014-08-30 11:20:00,79.5,69.6,29.90,SSW,202,0.0,0.0,72,0.02,,,0.27,WUHU21636XXSP,2014-08-30 15:20:00,
2014-08-30 11:25:00,79.2,69.3,29.90,SW,225,0.0,0.0,73,0.02,,,0.27,WUHU21636XXSP,2014-08-30 15:25:00,
2014-08-30 11:30:00,79.9,70.3,29.90,SW,225,0.0,0.0,73,0.02,,,0.27,WUHU21636XXSP,2014-08-30 15:30:00,
2014-08-30 11:35:00,81.5,71.1,29.90,WSW,247,0.0,0.0,71,0.02,,,0.27,WUHU21636XXSP,2014-08-30 15:35:00,
2014-08-30 11:40:00,82.0,70.7,29.90,WSW,247,0.0,0.0,69,0.02,,,0.27,WUHU21636XXSP,2014-08-30 15:40:00,
2014-08-30 11:45:00,82.2,71.4,29.90,SW,225,0.0,0.0,70,0.02,,,0.27,WUHU21636XXSP,2014-08-30 15:45:00,
2014-08-30 11:48:00,85.3,72.1,29.89,South,180,0.0,0.0,65,0.00,,,0.27,WUHU21636XXSP,2014-08-30 15:48:00,
2014-08-30 11:49:00,85.3,72.1,29.89,South,180,0.0,0.0,65,0.00,,,0.27,WUHU21636XXSP,2014-08-30 15:49:00,
2014-08-30 11:50:00,83.5,70.9,29.90,WSW,247,0.0,0.0,66,0.02,,,0.27,WUHU21636XXSP,2014-08-30 15:50:00,
2014-08-30 11:51:00,84.9,71.2,29.89,South,180,0.0,0.0,64,0.00,,,0.27,WUHU21636XXSP,2014-08-30 15:51:00,
2014-08-30 11:52:00,84.4,71.2,29.89,SSW,202,0.0,0.0,65,0.00,,,0.27,WUHU21636XXSP,2014-08-30 15:52:00,
2014-08-30 11:53:00,84.4,71.2,29.89,SSW,202,0.0,0.0,65,0.00,,,0.27,WUHU21636XXSP,2014-08-30 15:53:00,
2014-08-30 11:54:00,84.6,71.8,29.89,SSW,202,0.0,0.0,66,0.00,,,0.27,WUHU21636XXSP,2014-08-30 15:54:00,
2014-08-30 11:55:00,84.7,72.0,29.89,SW,225,0.0,0.0,66,0.00,,,0.27,WUHU21636XXSP,2014-08-30 15:55:00,
2014-08-30 12:00:00,86.2,72.5,29.89,WSW,247,0.0,0.0,64,0.00,,,0.27,WUHU21636XXSP,2014-08-30 16:00:00,
2014-08-30 12:05:00,87.1,72.9,29.89,SSW,202,0.0,0.0,62,0.00,,,0.27,WUHU21636XXSP,2014-08-30 16:05:00,
2014-08-30 12:10:00,88.3,72.7,29.90,South,180,0.0,0.0,60,0.00,,,0.27,WUHU21636XXSP,2014-08-30 16:10:00,
2014-08-30 12:15:00,87.1,72.0,29.89,SSW,202,0.0,0.0,61,0.00,,,0.27,WUHU21636XXSP,2014-08-30 16:15:00,
2014-08-30 12:20:00,85.3,72.1,29.89,South,180,0.0,0.0,65,0.00,,,0.27,WUHU21636XXSP,2014-08-30 16:20:00,
2014-08-30 12:25:00,84.4,71.2,29.89,SSW,202,0.0,0.0,65,0.00,,,0.27,WUHU21636XXSP,2014-08-30 16:25:00,
2014-08-30 12:30:00,84.6,71.8,29.90,SW,225,0.0,0.0,66,0.00,,,0.27,WUHU21636XXSP,2014-08-30 16:30:00,
2014-08-30 12:35:00,84.6,72.3,29.89,SSW,202,0.0,0.0,67,0.00,,,0.27,WUHU21636XXSP,2014-08-30 16:35:00,
2014-08-30 12:40:00,84.6,71.8,29.90,WSW,247,0.0,0.0,66,0.00,,,0.27,WUHU21636XXSP,2014-08-30 16:40:00,
2014-08-30 12:45:00,84.9,72.7,29.89,SW,225,0.0,0.0,67,0.00,,,0.27,WUHU21636XXSP,2014-08-30 16:45:00,
2014-08-30 12:50:00,86.7,72.5,29.90,South,180,0.0,0.0,63,0.00,,,0.27,WUHU21636XXSP,2014-08-30 16:50:00,
2014-08-30 12:55:00,86.4,72.1,29.89,SW,225,0.0,0.0,63,0.00,,,0.27,WUHU21636XXSP,2014-08-30 16:55:00,
2014-08-30 13:00:00,86.2,71.6,29.90,SSW,202,0.0,11.0,62,0.00,,,0.27,WUHU21636XXSP,2014-08-30 17:00:00,
2014-08-30 13:05:00,85.6,72.0,29.89,SSW,202,0.0,11.0,64,0.00,,,0.27,WUHU21636XXSP,2014-08-30 17:05:00,
2014-08-30 13:10:00,85.8,71.6,29.90,WSW,247,0.0,0.0,65,0.00,,,0.27,WUHU21636XXSP,2014-08-30 17:10:00,
2014-08-30 13:15:00,85.6,71.4,29.89,WSW,247,0.0,0.0,63,0.00,,,0.27,WUHU21636XXSP,2014-08-30 17:15:00,
2014-08-30 13:20:00,86.5,73.2,29.89,WSW,247,0.0,0.0,65,0.00,,,0.27,WUHU21636XXSP,2014-08-30 17:20:00,
2014-08-30 13:25:00,88.0,72.9,29.89,South,180,0.0,0.0,61,0.00,,,0.27,WUHU21636XXSP,2014-08-30 17:25:00,
2014-08-30 13:30:00,86.9,71.8,29.89,SSW,202,0.0,0.0,61,0.00,,,0.27,WUHU21636XXSP,2014-08-30 17:30:00,
2014-08-30 13:35:00,86.0,71.8,29.89,SSW,202,0.0,12.0,63,0.00,,,0.27,WUHU21636XXSP,2014-08-30 17:35:00,
2014-08-30 13:38:00,86.9,70.3,29.88,South,180,0.0,0.0,58,0.00,,,0.27,WUHU21636XXSP,2014-08-30 17:38:00,
2014-08-30 13:39:00,86.7,72.1,29.88,SSW,202,0.0,0.0,62,0.00,,,0.27,WUHU21636XXSP,2014-08-30 17:39:00,
2014-08-30 13:40:00,86.9,71.4,29.89,SSW,202,0.0,12.0,60,0.00,,,0.27,WUHU21636XXSP,2014-08-30 17:40:00,
2014-08-30 13:41:00,87.4,72.9,29.88,SSW,202,0.0,0.0,62,0.00,,,0.27,WUHU21636XXSP,2014-08-30 17:41:00,
2014-08-30 13:42:00,87.4,72.9,29.88,SSW,202,0.0,0.0,62,0.00,,,0.27,WUHU21636XXSP,2014-08-30 17:42:00,
2014-08-30 13:44:00,87.6,71.6,29.88,WSW,247,0.0,0.0,59,0.00,,,0.27,WUHU21636XXSP,2014-08-30 17:44:00,
2014-08-30 13:45:00,86.7,72.5,29.88,SW,225,0.0,0.0,63,0.00,,,0.27,WUHU21636XXSP,2014-08-30 17:45:00,
2014-08-30 13:46:00,88.0,73.2,29.88,SSW,202,0.0,0.0,62,0.00,,,0.27,WUHU21636XXSP,2014-08-30 17:46:00,
2014-08-30 13:47:00,88.0,73.2,29.88,SSW,202,0.0,0.0,62,0.00,,,0.27,WUHU21636XXSP,2014-08-30 17:47:00,
2014-08-30 13:48:00,87.8,71.2,29.88,SSW,202,0.0,0.0,58,0.00,,,0.27,WUHU21636XXSP,2014-08-30 17:48:00,
2014-08-30 13:49:00,87.8,71.2,29.88,SSW,202,0.0,0.0,58,0.00,,,0.27,WUHU21636XXSP,2014-08-30 17:49:00,
2014-08-30 13:50:00,86.7,72.1,29.88,West,270,0.0,0.0,62,0.00,,,0.27,WUHU21636XXSP,2014-08-30 17:50:00,
2014-08-30 13:51:00,87.6,71.6,29.88,South,180,0.0,0.0,59,0.00,,,0.27,WUHU21636XXSP,2014-08-30 17:51:00,
2014-08-30 13:55:00,87.1,71.6,29.88,SSW,202,6.0,6.0,60,0.00,,,0.27,WUHU21636XXSP,2014-08-30 17:55:00,
2014-08-30 14:00:00,88.0,71.2,29.88,SW,225,0.0,6.0,58,0.00,,,0.27,WUHU21636XXSP,2014-08-30 18:00:00,
2014-08-30 14:05:00,88.3,72.7,29.88,South,180,0.0,6.0,60,0.00,,,0.27,WUHU21636XXSP,2014-08-30 18:05:00,
2014-08-30 14:10:00,86.9,70.3,29.88,South,180,0.0,0.0,58,0.00,,,0.27,WUHU21636XXSP,2014-08-30 18:10:00,
2014-08-30 14:15:00,87.6,71.6,29.88,WSW,247,0.0,0.0,59,0.00,,,0.27,WUHU21636XXSP,2014-08-30 18:15:00,
2014-08-30 14:20:00,87.8,71.2,29.88,SSW,202,0.0,0.0,58,0.00,,,0.27,WUHU21636XXSP,2014-08-30 18:20:00,
2014-08-30 14:25:00,87.4,71.4,29.88,South,180,0.0,0.0,59,0.00,,,0.27,WUHU21636XXSP,2014-08-30 18:25:00,
2014-08-30 14:30:00,87.8,72.7,29.88,WSW,247,0.0,0.0,61,0.00,,,0.27,WUHU21636XXSP,2014-08-30 18:30:00,
2014-08-30 14:35:00,88.3,73.2,29.87,SW,225,0.0,0.0,61,0.00,,,0.27,WUHU21636XXSP,2014-08-30 18:35:00,
2014-08-30 14:40:00,88.0,71.8,29.87,South,180,0.0,0.0,59,0.02,,,0.29,WUHU21636XXSP,2014-08-30 18:40:00,
2014-08-30 14:45:00,87.4,72.3,29.87,SSW,202,0.0,0.0,61,0.02,,,0.29,WUHU21636XXSP,2014-08-30 18:45:00,
2014-08-30 14:50:00,88.7,72.5,29.87,SSW,202,0.0,0.0,59,0.02,,,0.29,WUHU21636XXSP,2014-08-30 18:50:00,
2014-08-30 14:55:00,89.2,73.6,29.86,SSW,202,0.0,0.0,58,0.02,,,0.29,WUHU21636XXSP,2014-08-30 18:55:00,
2014-08-30 15:00:00,88.7,72.5,29.87,South,180,0.0,0.0,59,0.02,,,0.29,WUHU21636XXSP,2014-08-30 19:00:00,
2014-08-30 15:05:00,88.0,71.8,29.86,SSW,202,0.0,0.0,59,0.02,,,0.29,WUHU21636XXSP,2014-08-30 19:05:00,
2014-08-30 15:10:00,88.2,73.0,29.86,SSW,202,0.0,0.0,58,0.02,,,0.29,WUHU21636XXSP,2014-08-30 19:10:00,
2014-08-30 15:15:00,87.6,71.6,29.85,SW,225,0.0,0.0,59,0.02,,,0.29,WUHU21636XXSP,2014-08-30 19:15:00,
2014-08-30 15:20:00,88.2,72.0,29.86,SSW,202,0.0,0.0,59,0.02,,,0.29,WUHU21636XXSP,2014-08-30 19:20:00,
2014-08-30 15:25:00,88.5,72.3,29.85,SW,225,0.0,0.0,59,0.02,,,0.29,WUHU21636XXSP,2014-08-30 19:25:00,
2014-08-30 15:30:00,88.9,72.7,29.85,SSW,202,0.0,0.0,59,0.02,,,0.29,WUHU21636XXSP,2014-08-30 19:30:00,
2014-08-30 15:35:00,88.9,71.6,29.85,SSW,202,0.0,0.0,57,0.02,,,0.29,WUHU21636XXSP,2014-08-30 19:35:00,
2014-08-30 15:37:00,87.4,71.4,29.83,SW,225,0.0,0.0,59,0.00,,,0.29,WUHU21636XXSP,2014-08-30 19:37:00,
2014-08-30 15:38:00,87.4,71.4,29.83,SW,225,0.0,0.0,59,0.00,,,0.29,WUHU21636XXSP,2014-08-30 19:38:00,
2014-08-30 15:40:00,87.6,70.0,29.85,SSW,202,0.0,0.0,56,0.00,,,0.29,WUHU21636XXSP,2014-08-30 19:40:00,
2014-08-30 15:44:00,88.5,71.2,29.83,WSW,247,0.0,0.0,57,0.00,,,0.29,WUHU21636XXSP,2014-08-30 19:44:00,
2014-08-30 15:45:00,87.4,71.4,29.85,SW,225,0.0,0.0,61,0.00,,,0.29,WUHU21636XXSP,2014-08-30 19:45:00,
2014-08-30 15:46:00,88.9,71.6,29.83,West,270,0.0,0.0,57,0.00,,,0.29,WUHU21636XXSP,2014-08-30 19:46:00,
2014-08-30 15:47:00,88.9,71.6,29.83,West,270,0.0,0.0,57,0.00,,,0.29,WUHU21636XXSP,2014-08-30 19:47:00,
2014-08-30 15:48:00,89.2,72.0,29.83,SW,225,0.0,0.0,57,0.00,,,0.29,WUHU21636XXSP,2014-08-30 19:48:00,
2014-08-30 15:50:00,87.4,71.4,29.85,SW,225,0.0,0.0,60,0.00,,,0.29,WUHU21636XXSP,2014-08-30 19:50:00,
2014-08-30 15:51:00,89.4,71.1,29.83,South,180,0.0,0.0,55,0.00,,,0.29,WUHU21636XXSP,2014-08-30 19:51:00,
2014-08-30 15:53:00,88.5,71.2,29.82,South,180,0.0,0.0,57,0.00,,,0.29,WUHU21636XXSP,2014-08-30 19:53:00,
2014-08-30 15:54:00,88.5,71.2,29.82,South,180,0.0,0.0,57,0.00,,,0.29,WUHU21636XXSP,2014-08-30 19:54:00,
2014-08-30 15:55:00,86.7,71.2,29.84,WSW,247,0.0,0.0,60,0.00,,,0.29,WUHU21636XXSP,2014-08-30 19:55:00,
2014-08-30 15:56:00,88.0,70.2,29.82,SSW,202,0.0,0.0,56,0.00,,,0.29,WUHU21636XXSP,2014-08-30 19:56:00,
2014-08-30 15:57:00,88.3,72.1,29.82,SSW,202,0.0,0.0,59,0.00,,,0.29,WUHU21636XXSP,2014-08-30 19:57:00,
2014-08-30 15:58:00,88.3,72.1,29.82,SSW,202,0.0,0.0,59,0.00,,,0.29,WUHU21636XXSP,2014-08-30 19:58:00,
2014-08-30 15:59:00,88.5,70.7,29.82,SSW,202,0.0,0.0,56,0.00,,,0.29,WUHU21636XXSP,2014-08-30 19:59:00,
2014-08-30 16:00:00,86.4,70.9,29.83,WSW,247,0.0,0.0,60,0.00,,,0.29,WUHU21636XXSP,2014-08-30 20:00:00,
2014-08-30 16:01:00,88.5,70.7,29.83,South,180,0.0,0.0,57,0.00,,,0.29,WUHU21636XXSP,2014-08-30 20:01:00,
2014-08-30 16:05:00,86.9,70.9,29.83,SSW,202,0.0,0.0,59,0.00,,,0.29,WUHU21636XXSP,2014-08-30 20:05:00,
2014-08-30 16:21:00,89.4,71.1,29.82,South,180,0.0,0.0,55,0.00,,,0.29,WUHU21636XXSP,2014-08-30 20:21:00,
2014-08-30 16:26:00,88.0,70.2,29.83,SSW,202,0.0,0.0,56,0.00,,,0.29,WUHU21636XXSP,2014-08-30 20:26:00,
2014-08-30 16:31:00,88.5,70.7,29.83,SSW,202,0.0,0.0,56,0.00,,,0.29,WUHU21636XXSP,2014-08-30 20:31:00,
2014-08-30 16:36:00,87.8,70.2,29.83,SSW,202,0.0,0.0,56,0.00,,,0.29,WUHU21636XXSP,2014-08-30 20:36:00,
2014-08-30 16:41:00,88.0,70.2,29.82,South,180,0.0,0.0,56,0.00,,,0.29,WUHU21636XXSP,2014-08-30 20:41:00,
2014-08-30 16:42:00,89.2,70.3,29.83,SW,225,0.0,0.0,54,0.00,,,0.29,WUHU21636XXSP,2014-08-30 20:42:00,
2014-08-30 16:43:00,89.2,70.3,29.82,SW,225,0.0,0.0,54,0.00,,,0.29,WUHU21636XXSP,2014-08-30 20:43:00,
2014-08-30 16:44:00,89.2,70.3,29.83,SW,225,0.0,0.0,55,0.00,,,0.29,WUHU21636XXSP,2014-08-30 20:44:00,
2014-08-30 16:46:00,88.0,70.7,29.82,SW,225,0.0,0.0,57,0.00,,,0.29,WUHU21636XXSP,2014-08-30 20:46:00,
2014-08-30 16:47:00,88.9,70.5,29.83,SW,225,0.0,0.0,55,0.00,,,0.29,WUHU21636XXSP,2014-08-30 20:47:00,
2014-08-30 16:48:00,89.1,71.8,29.83,WNW,292,0.0,0.0,57,0.00,,,0.29,WUHU21636XXSP,2014-08-30 20:48:00,
2014-08-30 16:49:00,89.1,71.8,29.83,WNW,292,0.0,0.0,57,0.00,,,0.29,WUHU21636XXSP,2014-08-30 20:49:00,
2014-08-30 16:50:00,89.1,71.8,29.83,WNW,292,0.0,0.0,57,0.00,,,0.29,WUHU21636XXSP,2014-08-30 20:50:00,
2014-08-30 16:51:00,88.3,72.1,29.82,South,180,0.0,0.0,59,0.00,,,0.29,WUHU21636XXSP,2014-08-30 20:51:00,
2014-08-30 16:56:00,89.2,72.5,29.82,SSW,202,0.0,0.0,58,0.00,,,0.29,WUHU21636XXSP,2014-08-30 20:56:00,
2014-08-30 17:01:00,89.4,71.6,29.83,South,180,0.0,0.0,56,0.00,,,0.29,WUHU21636XXSP,2014-08-30 21:01:00,
2014-08-30 17:06:00,89.4,71.6,29.83,SW,225,0.0,0.0,56,0.00,,,0.29,WUHU21636XXSP,2014-08-30 21:06:00,
2014-08-30 17:11:00,89.8,71.2,29.83,SSW,202,0.0,0.0,55,0.00,,,0.29,WUHU21636XXSP,2014-08-30 21:11:00,
2014-08-30 17:16:00,89.2,70.3,29.83,SW,225,0.0,0.0,55,0.00,,,0.29,WUHU21636XXSP,2014-08-30 21:16:00,
2014-08-30 17:21:00,88.9,70.5,29.83,North,0,0.0,0.0,55,0.00,,,0.29,WUHU21636XXSP,2014-08-30 21:21:00,
2014-08-30 17:26:00,85.6,64.9,29.83,NNE,22,0.0,0.0,50,0.00,,,0.29,WUHU21636XXSP,2014-08-30 21:26:00,
2014-08-30 17:31:00,83.5,64.9,29.83,NNE,22,0.0,0.0,54,0.00,,,0.29,WUHU21636XXSP,2014-08-30 21:31:00,
2014-08-30 17:36:00,81.1,63.3,29.83,NE,45,0.0,0.0,55,0.00,,,0.29,WUHU21636XXSP,2014-08-30 21:36:00,
2014-08-30 17:41:00,78.6,61.5,29.83,NNE,22,0.0,0.0,56,0.00,,,0.29,WUHU21636XXSP,2014-08-30 21:41:00,